sensor_id;sensor_type;location;lat;lon;timestamp;pressure;altitude;pressure_sealevel;temperature;humidity
5954;BME280;3002;42.642;24.812;2023-02-28T00:00:39;63789.69;;;-144.75;100.00
5954;BME280;3002;42.642;24.812;2023-02-28T00:03:05;63789.69;;;-144.75;100.00
5954;BME280;3002;42.642;24.812;2023-02-28T00:05:30;63789.69;;;-144.75;100.00
5954;BME280;3002;42.642;24.812;2023-02-28T00:07:56;63789.69;;;-144.75;100.00
5954;BME280;3002;42.642;24.812;2023-02-28T00:10:25;63789.69;;;-144.75;100.00
5954;BME280;3002;42.642;24.812;2023-02-28T00:12:52;63789.69;;;-144.75;100.00
5954;BME280;3002;42.642;24.812;2023-02-28T00:15:19;63789.69;;;-144.75;100.00
5954;BME280;3002;42.642;24.812;2023-02-28T00:17:45;63789.69;;;-144.75;100.00
5954;BME280;3002;42.642;24.812;2023-02-28T00:20:11;63789.69;;;-144.75;100.00
5954;BME280;3002;42.642;24.812;2023-02-28T00:22:39;63789.69;;;-144.75;100.00
5954;BME280;3002;42.642;24.812;2023-02-28T00:25:06;63789.69;;;-144.75;100.00
5954;BME280;3002;42.642;24.812;2023-02-28T00:27:35;63789.69;;;-144.75;100.00
5954;BME280;3002;42.642;24.812;2023-02-28T00:30:02;63789.69;;;-144.75;100.00
5954;BME280;3002;42.642;24.812;2023-02-28T00:32:27;63789.69;;;-144.75;100.00
5954;BME280;3002;42.642;24.812;2023-02-28T00:34:53;63789.69;;;-144.75;100.00
5954;BME280;3002;42.642;24.812;2023-02-28T00:37:18;63789.69;;;-144.75;100.00
5954;BME280;3002;42.642;24.812;2023-02-28T00:39:44;63789.69;;;-144.75;100.00
5954;BME280;3002;42.642;24.812;2023-02-28T00:42:10;63789.69;;;-144.75;100.00
5954;BME280;3002;42.642;24.812;2023-02-28T00:44:35;63789.69;;;-144.75;100.00
5954;BME280;3002;42.642;24.812;2023-02-28T00:47:01;63789.69;;;-144.75;100.00
5954;BME280;3002;42.642;24.812;2023-02-28T00:49:27;63789.69;;;-144.75;100.00
5954;BME280;3002;42.642;24.812;2023-02-28T00:51:54;63789.69;;;-144.75;100.00
5954;BME280;3002;42.642;24.812;2023-02-28T00:54:20;63789.69;;;-144.75;100.00
5954;BME280;3002;42.642;24.812;2023-02-28T00:56:46;63789.69;;;-144.75;100.00
5954;BME280;3002;42.642;24.812;2023-02-28T00:59:12;63789.69;;;-144.75;100.00
5954;BME280;3002;42.642;24.812;2023-02-28T01:01:38;63789.69;;;-144.75;100.00
5954;BME280;3002;42.642;24.812;2023-02-28T01:04:04;63789.69;;;-144.75;100.00
5954;BME280;3002;42.642;24.812;2023-02-28T01:06:30;63789.69;;;-144.75;100.00
5954;BME280;3002;42.642;24.812;2023-02-28T01:08:57;63789.69;;;-144.75;100.00
5954;BME280;3002;42.642;24.812;2023-02-28T01:11:22;63789.69;;;-144.75;100.00
5954;BME280;3002;42.642;24.812;2023-02-28T01:13:48;63789.69;;;-144.75;100.00
5954;BME280;3002;42.642;24.812;2023-02-28T01:16:23;63789.69;;;-144.75;100.00
5954;BME280;3002;42.642;24.812;2023-02-28T01:18:48;63789.69;;;-144.75;100.00
5954;BME280;3002;42.642;24.812;2023-02-28T01:21:16;63789.69;;;-144.75;100.00
5954;BME280;3002;42.642;24.812;2023-02-28T01:23:42;63789.69;;;-144.75;100.00
5954;BME280;3002;42.642;24.812;2023-02-28T01:26:10;63789.69;;;-144.75;100.00
5954;BME280;3002;42.642;24.812;2023-02-28T01:28:36;63789.69;;;-144.75;100.00
5954;BME280;3002;42.642;24.812;2023-02-28T01:31:02;63789.69;;;-144.75;100.00
5954;BME280;3002;42.642;24.812;2023-02-28T01:33:28;63789.69;;;-144.75;100.00
5954;BME280;3002;42.642;24.812;2023-02-28T01:36:07;63789.69;;;-144.75;100.00
5954;BME280;3002;42.642;24.812;2023-02-28T01:38:34;63789.69;;;-144.75;100.00
5954;BME280;3002;42.642;24.812;2023-02-28T01:41:00;63789.69;;;-144.75;100.00
5954;BME280;3002;42.642;24.812;2023-02-28T01:46:13;63789.69;;;-144.75;100.00
5954;BME280;3002;42.642;24.812;2023-02-28T01:48:58;63789.69;;;-144.75;100.00
5954;BME280;3002;42.642;24.812;2023-02-28T01:51:34;63789.69;;;-144.75;100.00
5954;BME280;3002;42.642;24.812;2023-02-28T01:54:07;63789.69;;;-144.75;100.00
5954;BME280;3002;42.642;24.812;2023-02-28T01:56:43;63789.69;;;-144.75;100.00
5954;BME280;3002;42.642;24.812;2023-02-28T01:59:12;63789.69;;;-144.75;100.00
5954;BME280;3002;42.642;24.812;2023-02-28T02:01:39;63789.69;;;-144.75;100.00
5954;BME280;3002;42.642;24.812;2023-02-28T02:04:05;63789.69;;;-144.75;100.00
5954;BME280;3002;42.642;24.812;2023-02-28T02:06:35;63789.69;;;-144.75;100.00
5954;BME280;3002;42.642;24.812;2023-02-28T02:09:02;63789.69;;;-144.75;100.00
5954;BME280;3002;42.642;24.812;2023-02-28T02:11:28;63789.69;;;-144.75;100.00
5954;BME280;3002;42.642;24.812;2023-02-28T02:14:17;63789.69;;;-144.75;100.00
5954;BME280;3002;42.642;24.812;2023-02-28T02:17:01;63789.69;;;-144.75;100.00
5954;BME280;3002;42.642;24.812;2023-02-28T02:22:21;63789.69;;;-144.75;100.00
5954;BME280;3002;42.642;24.812;2023-02-28T02:37:38;63789.69;;;-144.75;100.00
5954;BME280;3002;42.642;24.812;2023-02-28T02:40:18;63789.69;;;-144.75;100.00
5954;BME280;3002;42.642;24.812;2023-02-28T02:42:52;63789.69;;;-144.75;100.00
5954;BME280;3002;42.642;24.812;2023-02-28T02:48:03;63789.69;;;-144.75;100.00
5954;BME280;3002;42.642;24.812;2023-02-28T02:50:38;63789.69;;;-144.75;100.00
5954;BME280;3002;42.642;24.812;2023-02-28T02:53:06;63789.69;;;-144.75;100.00
5954;BME280;3002;42.642;24.812;2023-02-28T02:55:37;63789.69;;;-144.75;100.00
5954;BME280;3002;42.642;24.812;2023-02-28T02:58:08;63789.69;;;-144.75;100.00
5954;BME280;3002;42.642;24.812;2023-02-28T03:00:41;63789.69;;;-144.75;100.00
5954;BME280;3002;42.642;24.812;2023-02-28T03:03:09;63789.69;;;-144.75;100.00
5954;BME280;3002;42.642;24.812;2023-02-28T03:05:42;63789.69;;;-144.75;100.00
5954;BME280;3002;42.642;24.812;2023-02-28T03:08:10;63789.69;;;-144.75;100.00
5954;BME280;3002;42.642;24.812;2023-02-28T03:10:41;63789.69;;;-144.75;100.00
5954;BME280;3002;42.642;24.812;2023-02-28T03:26:34;63789.69;;;-144.75;100.00
5954;BME280;3002;42.642;24.812;2023-02-28T03:29:06;63789.69;;;-144.75;100.00
5954;BME280;3002;42.642;24.812;2023-02-28T03:31:44;63789.69;;;-144.75;100.00
5954;BME280;3002;42.642;24.812;2023-02-28T03:34:26;63789.69;;;-144.75;100.00
5954;BME280;3002;42.642;24.812;2023-02-28T03:36:57;63789.69;;;-144.75;100.00
5954;BME280;3002;42.642;24.812;2023-02-28T03:39:37;63789.69;;;-144.75;100.00
5954;BME280;3002;42.642;24.812;2023-02-28T03:42:26;63789.69;;;-144.75;100.00
5954;BME280;3002;42.642;24.812;2023-02-28T03:50:31;63789.69;;;-144.75;100.00
5954;BME280;3002;42.642;24.812;2023-02-28T03:53:04;63789.69;;;-144.75;100.00
5954;BME280;3002;42.642;24.812;2023-02-28T03:55:37;63789.69;;;-144.75;100.00
5954;BME280;3002;42.642;24.812;2023-02-28T03:58:27;63789.69;;;-144.75;100.00
5954;BME280;3002;42.642;24.812;2023-02-28T04:01:01;63789.69;;;-144.75;100.00
5954;BME280;3002;42.642;24.812;2023-02-28T04:03:36;63789.69;;;-144.75;100.00
5954;BME280;3002;42.642;24.812;2023-02-28T04:06:03;63789.69;;;-144.75;100.00
5954;BME280;3002;42.642;24.812;2023-02-28T04:08:29;63789.69;;;-144.75;100.00
5954;BME280;3002;42.642;24.812;2023-02-28T04:11:03;63789.69;;;-144.75;100.00
5954;BME280;3002;42.642;24.812;2023-02-28T04:13:31;63789.69;;;-144.75;100.00
5954;BME280;3002;42.642;24.812;2023-02-28T04:15:57;63789.69;;;-144.75;100.00
5954;BME280;3002;42.642;24.812;2023-02-28T04:18:23;63789.69;;;-144.75;100.00
5954;BME280;3002;42.642;24.812;2023-02-28T04:20:48;63789.69;;;-144.75;100.00
5954;BME280;3002;42.642;24.812;2023-02-28T04:23:13;63789.69;;;-144.75;100.00
5954;BME280;3002;42.642;24.812;2023-02-28T04:25:39;63789.69;;;-144.75;100.00
5954;BME280;3002;42.642;24.812;2023-02-28T04:28:06;63789.69;;;-144.75;100.00
5954;BME280;3002;42.642;24.812;2023-02-28T04:30:31;63789.69;;;-144.75;100.00
5954;BME280;3002;42.642;24.812;2023-02-28T04:33:00;63789.69;;;-144.75;100.00
5954;BME280;3002;42.642;24.812;2023-02-28T04:35:26;63789.69;;;-144.75;100.00
5954;BME280;3002;42.642;24.812;2023-02-28T04:37:51;63789.69;;;-144.75;100.00
5954;BME280;3002;42.642;24.812;2023-02-28T04:40:17;63789.69;;;-144.75;100.00
5954;BME280;3002;42.642;24.812;2023-02-28T04:42:42;63789.69;;;-144.75;100.00
5954;BME280;3002;42.642;24.812;2023-02-28T04:45:08;63789.69;;;-144.75;100.00
5954;BME280;3002;42.642;24.812;2023-02-28T04:47:36;63789.69;;;-144.75;100.00
5954;BME280;3002;42.642;24.812;2023-02-28T04:50:02;63789.69;;;-144.75;100.00
5954;BME280;3002;42.642;24.812;2023-02-28T04:52:28;63789.69;;;-144.75;100.00
5954;BME280;3002;42.642;24.812;2023-02-28T04:54:54;63789.69;;;-144.75;100.00
5954;BME280;3002;42.642;24.812;2023-02-28T04:57:20;63789.69;;;-144.75;100.00
5954;BME280;3002;42.642;24.812;2023-02-28T04:59:45;63789.69;;;-144.75;100.00
5954;BME280;3002;42.642;24.812;2023-02-28T05:02:11;63789.69;;;-144.75;100.00
5954;BME280;3002;42.642;24.812;2023-02-28T05:04:37;63789.69;;;-144.75;100.00
5954;BME280;3002;42.642;24.812;2023-02-28T05:07:03;63789.69;;;-144.75;100.00
5954;BME280;3002;42.642;24.812;2023-02-28T05:09:29;63789.69;;;-144.75;100.00
5954;BME280;3002;42.642;24.812;2023-02-28T05:11:55;63789.69;;;-144.75;100.00
5954;BME280;3002;42.642;24.812;2023-02-28T05:14:21;63789.69;;;-144.75;100.00
5954;BME280;3002;42.642;24.812;2023-02-28T05:16:46;63789.69;;;-144.75;100.00
5954;BME280;3002;42.642;24.812;2023-02-28T05:19:12;63789.69;;;-144.75;100.00
5954;BME280;3002;42.642;24.812;2023-02-28T05:21:40;63789.69;;;-144.75;100.00
5954;BME280;3002;42.642;24.812;2023-02-28T05:24:09;63789.69;;;-144.75;100.00
5954;BME280;3002;42.642;24.812;2023-02-28T05:26:36;63789.69;;;-144.75;100.00
5954;BME280;3002;42.642;24.812;2023-02-28T05:29:03;63789.69;;;-144.75;100.00
5954;BME280;3002;42.642;24.812;2023-02-28T05:31:28;63789.69;;;-144.75;100.00
5954;BME280;3002;42.642;24.812;2023-02-28T05:33:54;63789.69;;;-144.75;100.00
5954;BME280;3002;42.642;24.812;2023-02-28T05:36:20;63789.69;;;-144.75;100.00
5954;BME280;3002;42.642;24.812;2023-02-28T05:38:47;63789.69;;;-144.75;100.00
5954;BME280;3002;42.642;24.812;2023-02-28T05:41:13;63789.69;;;-144.75;100.00
5954;BME280;3002;42.642;24.812;2023-02-28T05:43:39;63789.69;;;-144.75;100.00
5954;BME280;3002;42.642;24.812;2023-02-28T05:46:09;63789.69;;;-144.75;100.00
5954;BME280;3002;42.642;24.812;2023-02-28T05:48:37;63789.69;;;-144.75;100.00
5954;BME280;3002;42.642;24.812;2023-02-28T05:51:03;63789.69;;;-144.75;100.00
5954;BME280;3002;42.642;24.812;2023-02-28T05:53:29;63789.69;;;-144.75;100.00
5954;BME280;3002;42.642;24.812;2023-02-28T05:55:55;63789.69;;;-144.75;100.00
5954;BME280;3002;42.642;24.812;2023-02-28T05:58:21;63789.69;;;-144.75;100.00
5954;BME280;3002;42.642;24.812;2023-02-28T06:00:47;63789.69;;;-144.75;100.00
5954;BME280;3002;42.642;24.812;2023-02-28T06:03:12;63789.69;;;-144.75;100.00
5954;BME280;3002;42.642;24.812;2023-02-28T06:05:38;63789.69;;;-144.75;100.00
5954;BME280;3002;42.642;24.812;2023-02-28T06:08:04;63789.69;;;-144.75;100.00
5954;BME280;3002;42.642;24.812;2023-02-28T06:10:34;63789.69;;;-144.75;100.00
5954;BME280;3002;42.642;24.812;2023-02-28T06:13:01;63789.69;;;-144.75;100.00
5954;BME280;3002;42.642;24.812;2023-02-28T06:15:28;63789.69;;;-144.75;100.00
5954;BME280;3002;42.642;24.812;2023-02-28T06:17:53;63789.69;;;-144.75;100.00
5954;BME280;3002;42.642;24.812;2023-02-28T06:20:19;63789.69;;;-144.75;100.00
5954;BME280;3002;42.642;24.812;2023-02-28T06:22:44;63789.69;;;-144.75;100.00
5954;BME280;3002;42.642;24.812;2023-02-28T06:25:10;63789.69;;;-144.75;100.00
5954;BME280;3002;42.642;24.812;2023-02-28T06:27:36;63789.69;;;-144.75;100.00
5954;BME280;3002;42.642;24.812;2023-02-28T06:30:01;63789.69;;;-144.75;100.00
5954;BME280;3002;42.642;24.812;2023-02-28T06:32:27;63789.69;;;-144.75;100.00
5954;BME280;3002;42.642;24.812;2023-02-28T06:34:52;63789.69;;;-144.75;100.00
5954;BME280;3002;42.642;24.812;2023-02-28T06:37:18;63789.69;;;-144.75;100.00
5954;BME280;3002;42.642;24.812;2023-02-28T06:39:44;63789.69;;;-144.75;100.00
5954;BME280;3002;42.642;24.812;2023-02-28T06:42:09;63789.69;;;-144.75;100.00
5954;BME280;3002;42.642;24.812;2023-02-28T06:44:35;63789.69;;;-144.75;100.00
5954;BME280;3002;42.642;24.812;2023-02-28T06:47:02;63789.69;;;-144.75;100.00
5954;BME280;3002;42.642;24.812;2023-02-28T06:49:29;63789.69;;;-144.75;100.00
5954;BME280;3002;42.642;24.812;2023-02-28T06:51:55;63789.69;;;-144.75;100.00
5954;BME280;3002;42.642;24.812;2023-02-28T06:54:21;63789.69;;;-144.75;100.00
5954;BME280;3002;42.642;24.812;2023-02-28T06:56:46;63789.69;;;-144.75;100.00
5954;BME280;3002;42.642;24.812;2023-02-28T06:59:12;63789.69;;;-144.75;100.00
5954;BME280;3002;42.642;24.812;2023-02-28T07:01:38;63789.69;;;-144.75;100.00
5954;BME280;3002;42.642;24.812;2023-02-28T07:04:05;63789.69;;;-144.75;100.00
5954;BME280;3002;42.642;24.812;2023-02-28T07:06:31;63789.69;;;-144.75;100.00
5954;BME280;3002;42.642;24.812;2023-02-28T07:08:57;63789.69;;;-144.75;100.00
5954;BME280;3002;42.642;24.812;2023-02-28T07:11:24;63789.69;;;-144.75;100.00
5954;BME280;3002;42.642;24.812;2023-02-28T07:13:54;63789.69;;;-144.75;100.00
5954;BME280;3002;42.642;24.812;2023-02-28T07:16:20;63789.69;;;-144.75;100.00
5954;BME280;3002;42.642;24.812;2023-02-28T07:18:46;63789.69;;;-144.75;100.00
5954;BME280;3002;42.642;24.812;2023-02-28T07:21:12;63789.69;;;-144.75;100.00
5954;BME280;3002;42.642;24.812;2023-02-28T07:23:38;63789.69;;;-144.75;100.00
5954;BME280;3002;42.642;24.812;2023-02-28T07:26:05;63789.69;;;-144.75;100.00
5954;BME280;3002;42.642;24.812;2023-02-28T07:28:31;63789.69;;;-144.75;100.00
5954;BME280;3002;42.642;24.812;2023-02-28T07:30:56;63789.69;;;-144.75;100.00
5954;BME280;3002;42.642;24.812;2023-02-28T07:33:22;63789.69;;;-144.75;100.00
5954;BME280;3002;42.642;24.812;2023-02-28T07:35:49;63789.69;;;-144.75;100.00
5954;BME280;3002;42.642;24.812;2023-02-28T07:38:15;63789.69;;;-144.75;100.00
5954;BME280;3002;42.642;24.812;2023-02-28T07:40:40;63789.69;;;-144.75;100.00
5954;BME280;3002;42.642;24.812;2023-02-28T07:43:06;63789.69;;;-144.75;100.00
5954;BME280;3002;42.642;24.812;2023-02-28T07:45:31;63789.69;;;-144.75;100.00
5954;BME280;3002;42.642;24.812;2023-02-28T07:48:00;63789.69;;;-144.75;100.00
5954;BME280;3002;42.642;24.812;2023-02-28T07:50:26;63789.69;;;-144.75;100.00
5954;BME280;3002;42.642;24.812;2023-02-28T07:52:54;63789.69;;;-144.75;100.00
5954;BME280;3002;42.642;24.812;2023-02-28T07:55:19;63789.69;;;-144.75;100.00
5954;BME280;3002;42.642;24.812;2023-02-28T07:57:45;63789.69;;;-144.75;100.00
5954;BME280;3002;42.642;24.812;2023-02-28T08:00:11;63789.69;;;-144.75;100.00
5954;BME280;3002;42.642;24.812;2023-02-28T08:02:38;63789.69;;;-144.75;100.00
5954;BME280;3002;42.642;24.812;2023-02-28T08:05:05;63789.69;;;-144.75;100.00
5954;BME280;3002;42.642;24.812;2023-02-28T08:07:31;63789.69;;;-144.75;100.00
5954;BME280;3002;42.642;24.812;2023-02-28T08:09:57;63789.69;;;-144.75;100.00
5954;BME280;3002;42.642;24.812;2023-02-28T08:12:23;63789.69;;;-144.75;100.00
5954;BME280;3002;42.642;24.812;2023-02-28T08:14:48;63789.69;;;-144.75;100.00
5954;BME280;3002;42.642;24.812;2023-02-28T08:17:14;63789.69;;;-144.75;100.00
5954;BME280;3002;42.642;24.812;2023-02-28T08:19:39;63789.69;;;-144.75;100.00
5954;BME280;3002;42.642;24.812;2023-02-28T08:22:04;63789.69;;;-144.75;100.00
5954;BME280;3002;42.642;24.812;2023-02-28T08:24:30;63789.69;;;-144.75;100.00
5954;BME280;3002;42.642;24.812;2023-02-28T08:26:56;63789.69;;;-144.75;100.00
5954;BME280;3002;42.642;24.812;2023-02-28T08:29:22;63789.69;;;-144.75;100.00
5954;BME280;3002;42.642;24.812;2023-02-28T08:31:47;63789.69;;;-144.75;100.00
5954;BME280;3002;42.642;24.812;2023-02-28T08:34:15;63789.69;;;-144.75;100.00
5954;BME280;3002;42.642;24.812;2023-02-28T08:36:40;63789.69;;;-144.75;100.00
5954;BME280;3002;42.642;24.812;2023-02-28T08:39:07;63789.69;;;-144.75;100.00
5954;BME280;3002;42.642;24.812;2023-02-28T08:41:33;63789.69;;;-144.75;100.00
5954;BME280;3002;42.642;24.812;2023-02-28T08:43:59;63789.69;;;-144.75;100.00
5954;BME280;3002;42.642;24.812;2023-02-28T08:46:25;63789.69;;;-144.75;100.00
5954;BME280;3002;42.642;24.812;2023-02-28T08:48:55;63789.69;;;-144.75;100.00
5954;BME280;3002;42.642;24.812;2023-02-28T08:51:21;63789.69;;;-144.75;100.00
5954;BME280;3002;42.642;24.812;2023-02-28T08:53:52;63789.69;;;-144.75;100.00
5954;BME280;3002;42.642;24.812;2023-02-28T08:56:18;63789.69;;;-144.75;100.00
5954;BME280;3002;42.642;24.812;2023-02-28T08:58:45;63789.69;;;-144.75;100.00
5954;BME280;3002;42.642;24.812;2023-02-28T09:01:17;63789.69;;;-144.75;100.00
5954;BME280;3002;42.642;24.812;2023-02-28T09:03:44;63789.69;;;-144.75;100.00
5954;BME280;3002;42.642;24.812;2023-02-28T09:06:11;63789.69;;;-144.75;100.00
5954;BME280;3002;42.642;24.812;2023-02-28T09:08:36;63789.69;;;-144.75;100.00
5954;BME280;3002;42.642;24.812;2023-02-28T09:11:02;63789.69;;;-144.75;100.00
5954;BME280;3002;42.642;24.812;2023-02-28T09:13:29;63789.69;;;-144.75;100.00
5954;BME280;3002;42.642;24.812;2023-02-28T09:15:59;63789.69;;;-144.75;100.00
5954;BME280;3002;42.642;24.812;2023-02-28T09:18:25;63789.69;;;-144.75;100.00
5954;BME280;3002;42.642;24.812;2023-02-28T09:20:51;63789.69;;;-144.75;100.00
5954;BME280;3002;42.642;24.812;2023-02-28T09:23:17;63789.69;;;-144.75;100.00
5954;BME280;3002;42.642;24.812;2023-02-28T09:25:48;63789.69;;;-144.75;100.00
5954;BME280;3002;42.642;24.812;2023-02-28T09:28:14;63789.69;;;-144.75;100.00
5954;BME280;3002;42.642;24.812;2023-02-28T09:30:48;63789.69;;;-144.75;100.00
5954;BME280;3002;42.642;24.812;2023-02-28T09:33:14;63789.69;;;-144.75;100.00
5954;BME280;3002;42.642;24.812;2023-02-28T09:35:40;63789.69;;;-144.75;100.00
5954;BME280;3002;42.642;24.812;2023-02-28T09:38:06;63789.69;;;-144.75;100.00
5954;BME280;3002;42.642;24.812;2023-02-28T09:40:35;63789.69;;;-144.75;100.00
5954;BME280;3002;42.642;24.812;2023-02-28T09:43:02;63789.69;;;-144.75;100.00
5954;BME280;3002;42.642;24.812;2023-02-28T09:45:32;63789.69;;;-144.75;100.00
5954;BME280;3002;42.642;24.812;2023-02-28T09:48:02;63789.69;;;-144.75;100.00
5954;BME280;3002;42.642;24.812;2023-02-28T09:50:40;63789.69;;;-144.75;100.00
5954;BME280;3002;42.642;24.812;2023-02-28T09:55:48;63789.69;;;-144.75;100.00
5954;BME280;3002;42.642;24.812;2023-02-28T09:58:28;63789.69;;;-144.75;100.00
5954;BME280;3002;42.642;24.812;2023-02-28T10:03:57;63789.69;;;-144.75;100.00
5954;BME280;3002;42.642;24.812;2023-02-28T10:06:29;63789.69;;;-144.75;100.00
5954;BME280;3002;42.642;24.812;2023-02-28T10:09:02;63789.69;;;-144.75;100.00
5954;BME280;3002;42.642;24.812;2023-02-28T10:11:32;63789.69;;;-144.75;100.00
5954;BME280;3002;42.642;24.812;2023-02-28T10:14:18;63789.69;;;-144.75;100.00
5954;BME280;3002;42.642;24.812;2023-02-28T10:19:22;63789.69;;;-144.75;100.00
5954;BME280;3002;42.642;24.812;2023-02-28T10:21:59;63789.69;;;-144.75;100.00
5954;BME280;3002;42.642;24.812;2023-02-28T10:24:32;63789.69;;;-144.75;100.00
5954;BME280;3002;42.642;24.812;2023-02-28T10:27:19;63789.69;;;-144.75;100.00
5954;BME280;3002;42.642;24.812;2023-02-28T10:29:56;63789.69;;;-144.75;100.00
5954;BME280;3002;42.642;24.812;2023-02-28T10:32:34;63789.69;;;-144.75;100.00
5954;BME280;3002;42.642;24.812;2023-02-28T10:37:39;63789.69;;;-144.75;100.00
5954;BME280;3002;42.642;24.812;2023-02-28T10:40:06;63789.69;;;-144.75;100.00
5954;BME280;3002;42.642;24.812;2023-02-28T10:43:16;63789.69;;;-144.75;100.00
5954;BME280;3002;42.642;24.812;2023-02-28T10:46:02;63789.69;;;-144.75;100.00
5954;BME280;3002;42.642;24.812;2023-02-28T10:48:37;63789.69;;;-144.75;100.00
5954;BME280;3002;42.642;24.812;2023-02-28T10:51:05;63789.69;;;-144.75;100.00
5954;BME280;3002;42.642;24.812;2023-02-28T10:53:52;63789.69;;;-144.75;100.00
5954;BME280;3002;42.642;24.812;2023-02-28T10:56:23;63789.69;;;-144.75;100.00
5954;BME280;3002;42.642;24.812;2023-02-28T10:59:01;63789.69;;;-144.75;100.00
5954;BME280;3002;42.642;24.812;2023-02-28T11:04:33;63789.69;;;-144.75;100.00
5954;BME280;3002;42.642;24.812;2023-02-28T11:07:16;63789.69;;;-144.75;100.00
5954;BME280;3002;42.642;24.812;2023-02-28T11:09:45;63789.69;;;-144.75;100.00
5954;BME280;3002;42.642;24.812;2023-02-28T11:12:27;63789.69;;;-144.75;100.00
5954;BME280;3002;42.642;24.812;2023-02-28T11:15:26;63789.69;;;-144.75;100.00
5954;BME280;3002;42.642;24.812;2023-02-28T11:18:00;63789.69;;;-144.75;100.00
5954;BME280;3002;42.642;24.812;2023-02-28T11:20:28;63789.69;;;-144.75;100.00
5954;BME280;3002;42.642;24.812;2023-02-28T11:22:56;63789.69;;;-144.75;100.00
5954;BME280;3002;42.642;24.812;2023-02-28T11:25:28;63789.69;;;-144.75;100.00
5954;BME280;3002;42.642;24.812;2023-02-28T11:28:00;63789.69;;;-144.75;100.00
5954;BME280;3002;42.642;24.812;2023-02-28T11:30:39;63789.69;;;-144.75;100.00
5954;BME280;3002;42.642;24.812;2023-02-28T11:33:29;63789.69;;;-144.75;100.00
5954;BME280;3002;42.642;24.812;2023-02-28T11:36:08;63789.69;;;-144.75;100.00
5954;BME280;3002;42.642;24.812;2023-02-28T11:38:35;63789.69;;;-144.75;100.00
5954;BME280;3002;42.642;24.812;2023-02-28T11:43:55;63789.69;;;-144.75;100.00
5954;BME280;3002;42.642;24.812;2023-02-28T11:46:42;63789.69;;;-144.75;100.00
5954;BME280;3002;42.642;24.812;2023-02-28T12:05:43;63789.69;;;-144.75;100.00
5954;BME280;3002;42.642;24.812;2023-02-28T12:08:25;63789.69;;;-144.75;100.00
5954;BME280;3002;42.642;24.812;2023-02-28T12:19:18;63789.69;;;-144.75;100.00
5954;BME280;3002;42.642;24.812;2023-02-28T12:26:59;63789.69;;;-144.75;100.00
5954;BME280;3002;42.642;24.812;2023-02-28T12:29:32;63789.69;;;-144.75;100.00
5954;BME280;3002;42.642;24.812;2023-02-28T12:32:39;63789.69;;;-144.75;100.00
5954;BME280;3002;42.642;24.812;2023-02-28T12:40:19;63789.69;;;-144.75;100.00
5954;BME280;3002;42.642;24.812;2023-02-28T12:43:06;63789.69;;;-144.75;100.00
5954;BME280;3002;42.642;24.812;2023-02-28T12:46:10;63789.69;;;-144.75;100.00
5954;BME280;3002;42.642;24.812;2023-02-28T12:48:40;63789.69;;;-144.75;100.00
5954;BME280;3002;42.642;24.812;2023-02-28T12:51:08;63789.69;;;-144.75;100.00
5954;BME280;3002;42.642;24.812;2023-02-28T12:53:57;63789.69;;;-144.75;100.00
5954;BME280;3002;42.642;24.812;2023-02-28T13:02:42;97133.91;;;11.81;100.00
5954;BME280;3002;42.642;24.812;2023-02-28T13:10:41;97131.31;;;11.61;100.00
5954;BME280;3002;42.642;24.812;2023-02-28T13:13:15;97120.69;;;11.40;100.00
5954;BME280;3002;42.642;24.812;2023-02-28T13:15:41;97095.38;;;10.92;100.00
5954;BME280;3002;42.642;24.812;2023-02-28T13:18:31;97144.16;;;11.69;100.00
5954;BME280;3002;42.642;24.812;2023-02-28T13:20:57;97129.41;;;10.96;100.00
5954;BME280;3002;42.642;24.812;2023-02-28T13:26:16;97120.72;;;11.25;100.00
5954;BME280;3002;42.642;24.812;2023-02-28T13:31:18;97128.19;;;11.93;100.00
5954;BME280;3002;42.642;24.812;2023-02-28T13:38:53;97121.97;;;11.97;100.00
5954;BME280;3002;42.642;24.812;2023-02-28T13:46:27;97086.44;;;11.61;100.00
5954;BME280;3002;42.642;24.812;2023-02-28T13:48:53;97063.50;;;11.40;100.00
5954;BME280;3002;42.642;24.812;2023-02-28T13:51:44;97094.22;;;12.07;100.00
5954;BME280;3002;42.642;24.812;2023-02-28T13:57:06;97102.09;;;11.49;100.00
5954;BME280;3002;42.642;24.812;2023-02-28T13:59:38;97116.13;;;11.90;100.00
5954;BME280;3002;42.642;24.812;2023-02-28T14:05:15;97095.72;;;11.79;100.00
5954;BME280;3002;42.642;24.812;2023-02-28T14:07:46;97109.53;;;12.12;100.00
5954;BME280;3002;42.642;24.812;2023-02-28T14:10:32;97114.63;;;12.13;100.00
5954;BME280;3002;42.642;24.812;2023-02-28T14:16:05;97126.44;;;11.63;100.00
5954;BME280;3002;42.642;24.812;2023-02-28T14:18:35;97096.09;;;11.62;100.00
5954;BME280;3002;42.642;24.812;2023-02-28T14:26:35;97120.91;;;11.93;100.00
5954;BME280;3002;42.642;24.812;2023-02-28T14:37:42;97119.97;;;11.14;100.00
5954;BME280;3002;42.642;24.812;2023-02-28T14:40:15;97095.78;;;11.19;100.00
5954;BME280;3002;42.642;24.812;2023-02-28T14:42:48;97127.19;;;11.84;100.00
5954;BME280;3002;42.642;24.812;2023-02-28T14:45:21;97106.44;;;11.94;100.00
5954;BME280;3002;42.642;24.812;2023-02-28T14:47:49;97096.81;;;11.78;100.00
5954;BME280;3002;42.642;24.812;2023-02-28T14:50:24;97136.81;;;11.90;100.00
5954;BME280;3002;42.642;24.812;2023-02-28T14:52:54;97109.72;;;11.21;100.00
5954;BME280;3002;42.642;24.812;2023-02-28T14:55:28;97128.13;;;12.03;100.00
5954;BME280;3002;42.642;24.812;2023-02-28T14:57:57;97144.56;;;12.36;100.00
5954;BME280;3002;42.642;24.812;2023-02-28T15:00:29;97137.69;;;12.19;100.00
5954;BME280;3002;42.642;24.812;2023-02-28T15:02:57;97142.41;;;11.44;100.00
5954;BME280;3002;42.642;24.812;2023-02-28T15:05:30;97137.47;;;12.11;100.00
5954;BME280;3002;42.642;24.812;2023-02-28T15:08:25;97132.22;;;11.95;100.00
5954;BME280;3002;42.642;24.812;2023-02-28T15:13:46;97146.81;;;11.74;100.00
5954;BME280;3002;42.642;24.812;2023-02-28T15:19:02;97147.84;;;11.29;100.00
5954;BME280;3002;42.642;24.812;2023-02-28T15:21:33;97126.75;;;11.56;100.00
5954;BME280;3002;42.642;24.812;2023-02-28T15:26:34;97145.41;;;11.92;100.00